sensor_id;sensor_type;location;lat;lon;timestamp;P1;durP1;ratioP1;P2;durP2;ratioP2
32399;SDS011;45045;45.440;9.178;2022-11-20T00:01:07;46.78;;;31.10;;
32399;SDS011;45045;45.440;9.178;2022-11-20T00:03:38;48.63;;;30.35;;
32399;SDS011;45045;45.440;9.178;2022-11-20T00:06:05;48.22;;;30.70;;
32399;SDS011;45045;45.440;9.178;2022-11-20T00:08:33;48.88;;;31.15;;
32399;SDS011;45045;45.440;9.178;2022-11-20T00:11:05;45.80;;;31.02;;
32399;SDS011;45045;45.440;9.178;2022-11-20T00:13:32;48.13;;;31.52;;
32399;SDS011;45045;45.440;9.178;2022-11-20T00:15:59;47.25;;;30.50;;
32399;SDS011;45045;45.440;9.178;2022-11-20T00:18:26;44.38;;;30.58;;
32399;SDS011;45045;45.440;9.178;2022-11-20T00:20:52;42.63;;;29.52;;
32399;SDS011;45045;45.440;9.178;2022-11-20T00:23:18;45.15;;;28.40;;
32399;SDS011;45045;45.440;9.178;2022-11-20T00:25:44;42.55;;;28.17;;
32399;SDS011;45045;45.440;9.178;2022-11-20T00:28:10;41.85;;;28.25;;
32399;SDS011;45045;45.440;9.178;2022-11-20T00:30:35;42.97;;;26.88;;
32399;SDS011;45045;45.440;9.178;2022-11-20T00:33:01;45.33;;;31.15;;
32399;SDS011;45045;45.440;9.178;2022-11-20T00:35:26;44.65;;;29.15;;
32399;SDS011;45045;45.440;9.178;2022-11-20T00:37:52;40.75;;;27.40;;
32399;SDS011;45045;45.440;9.178;2022-11-20T00:40:18;39.63;;;26.60;;
32399;SDS011;45045;45.440;9.178;2022-11-20T00:42:43;37.95;;;25.83;;
32399;SDS011;45045;45.440;9.178;2022-11-20T00:45:09;38.70;;;26.63;;
32399;SDS011;45045;45.440;9.178;2022-11-20T00:47:35;40.85;;;26.83;;
32399;SDS011;45045;45.440;9.178;2022-11-20T00:50:00;38.33;;;25.42;;
32399;SDS011;45045;45.440;9.178;2022-11-20T00:52:26;43.53;;;30.70;;
32399;SDS011;45045;45.440;9.178;2022-11-20T00:54:51;37.85;;;26.25;;
32399;SDS011;45045;45.440;9.178;2022-11-20T00:57:17;35.10;;;24.40;;
32399;SDS011;45045;45.440;9.178;2022-11-20T00:59:43;33.85;;;23.27;;
32399;SDS011;45045;45.440;9.178;2022-11-20T01:02:08;34.30;;;21.50;;
32399;SDS011;45045;45.440;9.178;2022-11-20T01:04:34;33.97;;;22.55;;
32399;SDS011;45045;45.440;9.178;2022-11-20T01:06:59;35.22;;;23.00;;
32399;SDS011;45045;45.440;9.178;2022-11-20T01:09:25;33.75;;;23.25;;
32399;SDS011;45045;45.440;9.178;2022-11-20T01:11:51;33.67;;;22.30;;
32399;SDS011;45045;45.440;9.178;2022-11-20T01:14:17;32.20;;;22.40;;
32399;SDS011;45045;45.440;9.178;2022-11-20T01:16:45;32.33;;;22.40;;
32399;SDS011;45045;45.440;9.178;2022-11-20T01:19:17;31.15;;;21.17;;
32399;SDS011;45045;45.440;9.178;2022-11-20T01:21:46;28.02;;;19.88;;
32399;SDS011;45045;45.440;9.178;2022-11-20T01:24:16;29.30;;;20.05;;
32399;SDS011;45045;45.440;9.178;2022-11-20T01:26:44;32.28;;;21.85;;
32399;SDS011;45045;45.440;9.178;2022-11-20T01:29:21;28.90;;;19.55;;
32399;SDS011;45045;45.440;9.178;2022-11-20T01:31:48;28.70;;;20.02;;
32399;SDS011;45045;45.440;9.178;2022-11-20T01:34:16;27.40;;;20.15;;
32399;SDS011;45045;45.440;9.178;2022-11-20T01:36:43;30.30;;;20.58;;
32399;SDS011;45045;45.440;9.178;2022-11-20T01:39:11;30.27;;;20.25;;
32399;SDS011;45045;45.440;9.178;2022-11-20T01:41:42;27.92;;;20.63;;
32399;SDS011;45045;45.440;9.178;2022-11-20T01:47:34;30.02;;;21.17;;
32399;SDS011;45045;45.440;9.178;2022-11-20T01:52:41;24.30;;;17.98;;
32399;SDS011;45045;45.440;9.178;2022-11-20T01:55:13;27.58;;;19.42;;
32399;SDS011;45045;45.440;9.178;2022-11-20T02:00:10;31.60;;;20.88;;
32399;SDS011;45045;45.440;9.178;2022-11-20T02:02:39;32.80;;;22.23;;
32399;SDS011;45045;45.440;9.178;2022-11-20T02:05:19;34.17;;;21.45;;
32399;SDS011;45045;45.440;9.178;2022-11-20T02:08:05;30.73;;;22.05;;
32399;SDS011;45045;45.440;9.178;2022-11-20T02:10:32;32.22;;;21.80;;
32399;SDS011;45045;45.440;9.178;2022-11-20T02:12:58;32.13;;;21.67;;
32399;SDS011;45045;45.440;9.178;2022-11-20T02:15:43;33.20;;;20.67;;
32399;SDS011;45045;45.440;9.178;2022-11-20T02:18:09;29.80;;;21.15;;
32399;SDS011;45045;45.440;9.178;2022-11-20T02:20:36;33.88;;;22.88;;
32399;SDS011;45045;45.440;9.178;2022-11-20T02:25:31;32.50;;;22.40;;
32399;SDS011;45045;45.440;9.178;2022-11-20T02:28:00;43.65;;;28.95;;
32399;SDS011;45045;45.440;9.178;2022-11-20T02:30:26;33.60;;;22.38;;
32399;SDS011;45045;45.440;9.178;2022-11-20T02:32:51;33.90;;;22.83;;
32399;SDS011;45045;45.440;9.178;2022-11-20T02:37:47;32.55;;;21.42;;
32399;SDS011;45045;45.440;9.178;2022-11-20T02:40:14;28.95;;;19.85;;
32399;SDS011;45045;45.440;9.178;2022-11-20T02:42:40;30.13;;;21.27;;
32399;SDS011;45045;45.440;9.178;2022-11-20T02:45:06;33.60;;;22.77;;
32399;SDS011;45045;45.440;9.178;2022-11-20T02:47:32;26.02;;;18.15;;
32399;SDS011;45045;45.440;9.178;2022-11-20T02:49:58;27.70;;;18.90;;
32399;SDS011;45045;45.440;9.178;2022-11-20T02:52:24;25.85;;;18.30;;
32399;SDS011;45045;45.440;9.178;2022-11-20T02:54:50;24.50;;;17.45;;
32399;SDS011;45045;45.440;9.178;2022-11-20T02:57:16;24.45;;;17.92;;
32399;SDS011;45045;45.440;9.178;2022-11-20T02:59:41;28.27;;;18.05;;
32399;SDS011;45045;45.440;9.178;2022-11-20T03:02:07;27.55;;;19.48;;
32399;SDS011;45045;45.440;9.178;2022-11-20T03:04:32;22.25;;;17.73;;
32399;SDS011;45045;45.440;9.178;2022-11-20T03:06:58;26.08;;;18.95;;
32399;SDS011;45045;45.440;9.178;2022-11-20T03:09:24;27.05;;;18.70;;
32399;SDS011;45045;45.440;9.178;2022-11-20T03:11:49;23.38;;;17.38;;
32399;SDS011;45045;45.440;9.178;2022-11-20T03:14:15;21.90;;;15.40;;
32399;SDS011;45045;45.440;9.178;2022-11-20T03:16:41;21.02;;;15.13;;
32399;SDS011;45045;45.440;9.178;2022-11-20T03:19:06;21.90;;;15.63;;
32399;SDS011;45045;45.440;9.178;2022-11-20T03:21:32;22.10;;;16.60;;
32399;SDS011;45045;45.440;9.178;2022-11-20T03:23:58;24.63;;;17.75;;
32399;SDS011;45045;45.440;9.178;2022-11-20T03:26:24;23.02;;;17.65;;
32399;SDS011;45045;45.440;9.178;2022-11-20T03:28:51;20.95;;;15.32;;
32399;SDS011;45045;45.440;9.178;2022-11-20T03:31:22;20.50;;;14.88;;
32399;SDS011;45045;45.440;9.178;2022-11-20T03:33:49;22.55;;;15.48;;
32399;SDS011;45045;45.440;9.178;2022-11-20T03:36:16;18.75;;;14.98;;
32399;SDS011;45045;45.440;9.178;2022-11-20T03:38:42;25.25;;;16.90;;
32399;SDS011;45045;45.440;9.178;2022-11-20T03:41:12;21.83;;;15.63;;
32399;SDS011;45045;45.440;9.178;2022-11-20T03:43:48;18.27;;;14.15;;
32399;SDS011;45045;45.440;9.178;2022-11-20T03:46:15;19.00;;;14.20;;
32399;SDS011;45045;45.440;9.178;2022-11-20T03:48:41;20.63;;;15.43;;
32399;SDS011;45045;45.440;9.178;2022-11-20T03:51:10;18.85;;;15.00;;
32399;SDS011;45045;45.440;9.178;2022-11-20T03:53:41;24.60;;;18.05;;
32399;SDS011;45045;45.440;9.178;2022-11-20T03:56:08;19.63;;;13.38;;
32399;SDS011;45045;45.440;9.178;2022-11-20T03:58:35;16.70;;;13.32;;
32399;SDS011;45045;45.440;9.178;2022-11-20T04:01:08;17.35;;;13.18;;
32399;SDS011;45045;45.440;9.178;2022-11-20T04:03:35;19.38;;;14.60;;
32399;SDS011;45045;45.440;9.178;2022-11-20T04:06:03;17.17;;;13.18;;
32399;SDS011;45045;45.440;9.178;2022-11-20T04:08:30;16.63;;;12.52;;
32399;SDS011;45045;45.440;9.178;2022-11-20T04:10:56;22.17;;;15.77;;
32399;SDS011;45045;45.440;9.178;2022-11-20T04:13:32;18.05;;;14.00;;
32399;SDS011;45045;45.440;9.178;2022-11-20T04:15:58;18.10;;;13.98;;
32399;SDS011;45045;45.440;9.178;2022-11-20T04:18:23;17.63;;;13.77;;
32399;SDS011;45045;45.440;9.178;2022-11-20T04:20:49;16.48;;;12.93;;
32399;SDS011;45045;45.440;9.178;2022-11-20T04:23:14;14.35;;;11.52;;
32399;SDS011;45045;45.440;9.178;2022-11-20T04:25:40;20.98;;;14.82;;
32399;SDS011;45045;45.440;9.178;2022-11-20T04:28:05;15.57;;;12.32;;
32399;SDS011;45045;45.440;9.178;2022-11-20T04:30:31;17.17;;;12.55;;
32399;SDS011;45045;45.440;9.178;2022-11-20T04:32:57;18.08;;;13.23;;
32399;SDS011;45045;45.440;9.178;2022-11-20T04:35:22;23.65;;;17.23;;
32399;SDS011;45045;45.440;9.178;2022-11-20T04:37:50;23.70;;;17.50;;
32399;SDS011;45045;45.440;9.178;2022-11-20T04:40:16;22.40;;;16.08;;
32399;SDS011;45045;45.440;9.178;2022-11-20T04:42:42;16.98;;;13.40;;
32399;SDS011;45045;45.440;9.178;2022-11-20T04:45:07;19.75;;;14.75;;
32399;SDS011;45045;45.440;9.178;2022-11-20T04:47:33;16.77;;;12.60;;
32399;SDS011;45045;45.440;9.178;2022-11-20T04:49:59;21.70;;;14.93;;
32399;SDS011;45045;45.440;9.178;2022-11-20T04:52:24;19.33;;;13.95;;
32399;SDS011;45045;45.440;9.178;2022-11-20T04:54:50;18.42;;;13.75;;
32399;SDS011;45045;45.440;9.178;2022-11-20T04:57:17;23.75;;;15.45;;
32399;SDS011;45045;45.440;9.178;2022-11-20T04:59:43;20.77;;;13.50;;
32399;SDS011;45045;45.440;9.178;2022-11-20T05:02:09;22.15;;;16.02;;
32399;SDS011;45045;45.440;9.178;2022-11-20T05:04:35;21.50;;;13.68;;
32399;SDS011;45045;45.440;9.178;2022-11-20T05:07:01;19.77;;;14.15;;
32399;SDS011;45045;45.440;9.178;2022-11-20T05:09:27;22.70;;;16.95;;
32399;SDS011;45045;45.440;9.178;2022-11-20T05:11:52;24.17;;;16.92;;
32399;SDS011;45045;45.440;9.178;2022-11-20T05:14:18;17.27;;;13.40;;
32399;SDS011;45045;45.440;9.178;2022-11-20T05:16:43;21.83;;;15.43;;
32399;SDS011;45045;45.440;9.178;2022-11-20T05:19:09;17.85;;;13.55;;
32399;SDS011;45045;45.440;9.178;2022-11-20T05:21:35;21.45;;;16.00;;
32399;SDS011;45045;45.440;9.178;2022-11-20T05:24:00;26.65;;;18.80;;
32399;SDS011;45045;45.440;9.178;2022-11-20T05:26:26;17.90;;;13.40;;
32399;SDS011;45045;45.440;9.178;2022-11-20T05:28:51;19.48;;;13.63;;
32399;SDS011;45045;45.440;9.178;2022-11-20T05:31:18;18.13;;;13.73;;
32399;SDS011;45045;45.440;9.178;2022-11-20T05:33:45;21.48;;;15.50;;
32399;SDS011;45045;45.440;9.178;2022-11-20T05:36:12;22.02;;;15.82;;
32399;SDS011;45045;45.440;9.178;2022-11-20T05:38:38;19.67;;;14.45;;
32399;SDS011;45045;45.440;9.178;2022-11-20T05:41:08;20.92;;;15.70;;
32399;SDS011;45045;45.440;9.178;2022-11-20T05:43:41;27.90;;;18.13;;
32399;SDS011;45045;45.440;9.178;2022-11-20T05:46:09;18.48;;;14.02;;
32399;SDS011;45045;45.440;9.178;2022-11-20T05:48:36;21.00;;;14.30;;
32399;SDS011;45045;45.440;9.178;2022-11-20T05:51:04;19.73;;;14.35;;
32399;SDS011;45045;45.440;9.178;2022-11-20T05:53:31;16.88;;;12.55;;
32399;SDS011;45045;45.440;9.178;2022-11-20T05:56:01;17.98;;;13.88;;
32399;SDS011;45045;45.440;9.178;2022-11-20T05:58:27;17.05;;;12.55;;
32399;SDS011;45045;45.440;9.178;2022-11-20T06:00:54;19.30;;;12.63;;
32399;SDS011;45045;45.440;9.178;2022-11-20T06:03:27;22.38;;;16.23;;
32399;SDS011;45045;45.440;9.178;2022-11-20T06:05:54;15.77;;;12.25;;
32399;SDS011;45045;45.440;9.178;2022-11-20T06:08:20;19.13;;;12.75;;
32399;SDS011;45045;45.440;9.178;2022-11-20T06:10:45;17.45;;;13.65;;
32399;SDS011;45045;45.440;9.178;2022-11-20T06:13:11;20.00;;;14.98;;
32399;SDS011;45045;45.440;9.178;2022-11-20T06:15:36;26.10;;;17.92;;
32399;SDS011;45045;45.440;9.178;2022-11-20T06:18:02;19.70;;;13.90;;
32399;SDS011;45045;45.440;9.178;2022-11-20T06:20:28;18.20;;;12.55;;
32399;SDS011;45045;45.440;9.178;2022-11-20T06:22:53;20.73;;;15.18;;
32399;SDS011;45045;45.440;9.178;2022-11-20T06:25:19;16.23;;;11.93;;
32399;SDS011;45045;45.440;9.178;2022-11-20T06:27:44;16.88;;;12.20;;
32399;SDS011;45045;45.440;9.178;2022-11-20T06:30:10;18.92;;;14.02;;
32399;SDS011;45045;45.440;9.178;2022-11-20T06:32:36;21.23;;;14.70;;
32399;SDS011;45045;45.440;9.178;2022-11-20T06:35:02;19.00;;;13.20;;
32399;SDS011;45045;45.440;9.178;2022-11-20T06:37:28;22.25;;;15.52;;
32399;SDS011;45045;45.440;9.178;2022-11-20T06:39:53;20.73;;;14.65;;
32399;SDS011;45045;45.440;9.178;2022-11-20T06:42:19;17.63;;;12.88;;
32399;SDS011;45045;45.440;9.178;2022-11-20T06:44:44;22.25;;;15.45;;
32399;SDS011;45045;45.440;9.178;2022-11-20T06:47:10;22.75;;;14.55;;
32399;SDS011;45045;45.440;9.178;2022-11-20T06:49:36;23.40;;;13.52;;
32399;SDS011;45045;45.440;9.178;2022-11-20T06:52:03;25.00;;;16.60;;
32399;SDS011;45045;45.440;9.178;2022-11-20T06:54:29;18.33;;;13.43;;
32399;SDS011;45045;45.440;9.178;2022-11-20T06:56:54;18.20;;;12.50;;
32399;SDS011;45045;45.440;9.178;2022-11-20T06:59:20;21.23;;;14.35;;
32399;SDS011;45045;45.440;9.178;2022-11-20T07:01:46;17.13;;;12.15;;
32399;SDS011;45045;45.440;9.178;2022-11-20T07:04:11;27.10;;;18.35;;
32399;SDS011;45045;45.440;9.178;2022-11-20T07:06:38;18.80;;;12.20;;
32399;SDS011;45045;45.440;9.178;2022-11-20T07:09:03;17.27;;;12.55;;
32399;SDS011;45045;45.440;9.178;2022-11-20T07:11:29;18.73;;;13.32;;
32399;SDS011;45045;45.440;9.178;2022-11-20T07:13:56;25.02;;;17.80;;
32399;SDS011;45045;45.440;9.178;2022-11-20T07:16:22;20.33;;;14.50;;
32399;SDS011;45045;45.440;9.178;2022-11-20T07:18:47;20.42;;;13.45;;
32399;SDS011;45045;45.440;9.178;2022-11-20T07:21:13;20.42;;;13.27;;
32399;SDS011;45045;45.440;9.178;2022-11-20T07:23:39;23.23;;;14.95;;
32399;SDS011;45045;45.440;9.178;2022-11-20T07:26:05;23.48;;;16.00;;
32399;SDS011;45045;45.440;9.178;2022-11-20T07:28:31;21.05;;;13.68;;
32399;SDS011;45045;45.440;9.178;2022-11-20T07:30:57;19.63;;;14.73;;
32399;SDS011;45045;45.440;9.178;2022-11-20T07:33:22;23.23;;;16.17;;
32399;SDS011;45045;45.440;9.178;2022-11-20T07:35:48;20.25;;;12.43;;
32399;SDS011;45045;45.440;9.178;2022-11-20T07:38:14;17.13;;;12.10;;
32399;SDS011;45045;45.440;9.178;2022-11-20T07:40:39;18.60;;;11.90;;
32399;SDS011;45045;45.440;9.178;2022-11-20T07:43:05;17.25;;;12.45;;
32399;SDS011;45045;45.440;9.178;2022-11-20T07:45:31;19.27;;;12.63;;
32399;SDS011;45045;45.440;9.178;2022-11-20T07:47:56;17.60;;;12.73;;
32399;SDS011;45045;45.440;9.178;2022-11-20T07:50:22;16.17;;;11.52;;
32399;SDS011;45045;45.440;9.178;2022-11-20T07:52:47;17.25;;;11.88;;
32399;SDS011;45045;45.440;9.178;2022-11-20T07:55:13;17.30;;;11.73;;
32399;SDS011;45045;45.440;9.178;2022-11-20T07:57:40;15.95;;;11.52;;
32399;SDS011;45045;45.440;9.178;2022-11-20T08:00:06;20.60;;;12.18;;
32399;SDS011;45045;45.440;9.178;2022-11-20T08:02:39;15.82;;;11.85;;
32399;SDS011;45045;45.440;9.178;2022-11-20T08:05:06;18.83;;;11.82;;
32399;SDS011;45045;45.440;9.178;2022-11-20T08:07:39;15.77;;;11.45;;
32399;SDS011;45045;45.440;9.178;2022-11-20T08:10:07;18.23;;;11.30;;
32399;SDS011;45045;45.440;9.178;2022-11-20T08:12:34;20.88;;;14.30;;
32399;SDS011;45045;45.440;9.178;2022-11-20T08:15:18;15.15;;;11.15;;
32399;SDS011;45045;45.440;9.178;2022-11-20T08:17:43;15.70;;;10.75;;
32399;SDS011;45045;45.440;9.178;2022-11-20T08:20:09;14.43;;;11.02;;
32399;SDS011;45045;45.440;9.178;2022-11-20T08:22:35;16.42;;;11.40;;
32399;SDS011;45045;45.440;9.178;2022-11-20T08:25:01;13.80;;;10.50;;
32399;SDS011;45045;45.440;9.178;2022-11-20T08:27:26;20.45;;;12.10;;
32399;SDS011;45045;45.440;9.178;2022-11-20T08:29:52;17.23;;;11.27;;
32399;SDS011;45045;45.440;9.178;2022-11-20T08:32:17;15.85;;;11.15;;
32399;SDS011;45045;45.440;9.178;2022-11-20T08:34:43;14.52;;;11.13;;
32399;SDS011;45045;45.440;9.178;2022-11-20T08:37:09;16.35;;;12.38;;
32399;SDS011;45045;45.440;9.178;2022-11-20T08:39:34;16.40;;;12.55;;
32399;SDS011;45045;45.440;9.178;2022-11-20T08:42:00;17.15;;;12.27;;
32399;SDS011;45045;45.440;9.178;2022-11-20T08:44:26;15.90;;;11.55;;
32399;SDS011;45045;45.440;9.178;2022-11-20T08:46:52;19.15;;;12.35;;
32399;SDS011;45045;45.440;9.178;2022-11-20T08:49:20;19.05;;;12.32;;
32399;SDS011;45045;45.440;9.178;2022-11-20T08:51:46;19.45;;;11.48;;
32399;SDS011;45045;45.440;9.178;2022-11-20T08:54:16;18.55;;;10.98;;
32399;SDS011;45045;45.440;9.178;2022-11-20T08:56:44;16.00;;;11.70;;
32399;SDS011;45045;45.440;9.178;2022-11-20T08:59:10;22.00;;;12.50;;
32399;SDS011;45045;45.440;9.178;2022-11-20T09:01:36;17.77;;;11.85;;
32399;SDS011;45045;45.440;9.178;2022-11-20T09:04:01;15.93;;;10.27;;
32399;SDS011;45045;45.440;9.178;2022-11-20T09:06:28;14.52;;;9.55;;
32399;SDS011;45045;45.440;9.178;2022-11-20T09:08:54;14.55;;;10.05;;
32399;SDS011;45045;45.440;9.178;2022-11-20T09:11:27;15.60;;;9.00;;
32399;SDS011;45045;45.440;9.178;2022-11-20T09:13:53;12.02;;;7.70;;
32399;SDS011;45045;45.440;9.178;2022-11-20T09:16:19;16.38;;;10.50;;
32399;SDS011;45045;45.440;9.178;2022-11-20T09:18:45;12.68;;;8.23;;
32399;SDS011;45045;45.440;9.178;2022-11-20T09:21:11;10.70;;;7.75;;
32399;SDS011;45045;45.440;9.178;2022-11-20T09:23:38;11.30;;;7.68;;
32399;SDS011;45045;45.440;9.178;2022-11-20T09:26:05;14.63;;;7.95;;
32399;SDS011;45045;45.440;9.178;2022-11-20T09:28:32;14.38;;;7.90;;
32399;SDS011;45045;45.440;9.178;2022-11-20T09:30:58;12.45;;;8.13;;
32399;SDS011;45045;45.440;9.178;2022-11-20T09:33:24;12.05;;;7.78;;
32399;SDS011;45045;45.440;9.178;2022-11-20T09:35:50;12.85;;;8.38;;
32399;SDS011;45045;45.440;9.178;2022-11-20T09:38:15;10.48;;;7.82;;
32399;SDS011;45045;45.440;9.178;2022-11-20T09:40:45;11.68;;;8.43;;
32399;SDS011;45045;45.440;9.178;2022-11-20T09:45:57;12.00;;;7.05;;
32399;SDS011;45045;45.440;9.178;2022-11-20T09:51:50;10.48;;;6.70;;
32399;SDS011;45045;45.440;9.178;2022-11-20T09:54:26;56.95;;;39.67;;
32399;SDS011;45045;45.440;9.178;2022-11-20T09:56:58;137.48;;;69.50;;
32399;SDS011;45045;45.440;9.178;2022-11-20T09:59:45;82.18;;;39.92;;
32399;SDS011;45045;45.440;9.178;2022-11-20T10:04:53;13.77;;;9.00;;
32399;SDS011;45045;45.440;9.178;2022-11-20T10:07:43;9.82;;;6.88;;
32399;SDS011;45045;45.440;9.178;2022-11-20T10:21:33;152.05;;;92.10;;
32399;SDS011;45045;45.440;9.178;2022-11-20T10:24:29;238.30;;;148.30;;
32399;SDS011;45045;45.440;9.178;2022-11-20T10:27:37;163.73;;;92.78;;
32399;SDS011;45045;45.440;9.178;2022-11-20T10:30:28;107.47;;;60.92;;
32399;SDS011;45045;45.440;9.178;2022-11-20T10:32:58;18.00;;;10.85;;
32399;SDS011;45045;45.440;9.178;2022-11-20T10:35:34;87.68;;;51.58;;
32399;SDS011;45045;45.440;9.178;2022-11-20T10:38:47;12.45;;;8.50;;
32399;SDS011;45045;45.440;9.178;2022-11-20T10:41:11;15.95;;;10.43;;
32399;SDS011;45045;45.440;9.178;2022-11-20T10:44:11;12.88;;;8.13;;
32399;SDS011;45045;45.440;9.178;2022-11-20T10:47:12;12.68;;;8.07;;
32399;SDS011;45045;45.440;9.178;2022-11-20T10:49:39;8.95;;;7.07;;
32399;SDS011;45045;45.440;9.178;2022-11-20T11:00:26;11.95;;;8.85;;
32399;SDS011;45045;45.440;9.178;2022-11-20T11:02:55;40.60;;;33.80;;
32399;SDS011;45045;45.440;9.178;2022-11-20T11:05:38;16.35;;;13.00;;
32399;SDS011;45045;45.440;9.178;2022-11-20T11:08:12;19.73;;;16.80;;
32399;SDS011;45045;45.440;9.178;2022-11-20T11:13:23;11.70;;;8.68;;
32399;SDS011;45045;45.440;9.178;2022-11-20T11:15:50;12.13;;;8.90;;
32399;SDS011;45045;45.440;9.178;2022-11-20T11:18:29;14.02;;;10.82;;
32399;SDS011;45045;45.440;9.178;2022-11-20T11:20:57;20.38;;;18.02;;
32399;SDS011;45045;45.440;9.178;2022-11-20T11:23:32;20.90;;;18.67;;
32399;SDS011;45045;45.440;9.178;2022-11-20T11:26:03;24.73;;;21.70;;
32399;SDS011;45045;45.440;9.178;2022-11-20T11:28:31;13.27;;;9.45;;
32399;SDS011;45045;45.440;9.178;2022-11-20T11:30:57;15.23;;;12.13;;
32399;SDS011;45045;45.440;9.178;2022-11-20T11:35:57;15.18;;;12.70;;
32399;SDS011;45045;45.440;9.178;2022-11-20T11:38:42;12.57;;;9.50;;
32399;SDS011;45045;45.440;9.178;2022-11-20T11:41:09;14.02;;;9.48;;
32399;SDS011;45045;45.440;9.178;2022-11-20T11:43:48;14.30;;;10.15;;
32399;SDS011;45045;45.440;9.178;2022-11-20T11:46:38;15.35;;;10.88;;
32399;SDS011;45045;45.440;9.178;2022-11-20T11:49:13;12.05;;;9.38;;
32399;SDS011;45045;45.440;9.178;2022-11-20T11:54:16;11.60;;;8.77;;
32399;SDS011;45045;45.440;9.178;2022-11-20T11:56:48;17.73;;;12.63;;
32399;SDS011;45045;45.440;9.178;2022-11-20T11:59:23;13.50;;;9.00;;
32399;SDS011;45045;45.440;9.178;2022-11-20T12:02:04;11.43;;;8.75;;
32399;SDS011;45045;45.440;9.178;2022-11-20T12:04:58;13.55;;;9.70;;
32399;SDS011;45045;45.440;9.178;2022-11-20T12:10:20;11.52;;;8.80;;
32399;SDS011;45045;45.440;9.178;2022-11-20T12:12:50;13.70;;;9.07;;
32399;SDS011;45045;45.440;9.178;2022-11-20T12:15:25;10.38;;;7.97;;
32399;SDS011;45045;45.440;9.178;2022-11-20T12:17:54;17.15;;;11.20;;
32399;SDS011;45045;45.440;9.178;2022-11-20T12:20:19;12.82;;;9.88;;
32399;SDS011;45045;45.440;9.178;2022-11-20T12:28:17;11.15;;;8.32;;
32399;SDS011;45045;45.440;9.178;2022-11-20T12:31:01;10.70;;;8.25;;
32399;SDS011;45045;45.440;9.178;2022-11-20T12:36:19;11.43;;;8.32;;
32399;SDS011;45045;45.440;9.178;2022-11-20T12:53:31;8.32;;;6.38;;
32399;SDS011;45045;45.440;9.178;2022-11-20T13:02:44;8.68;;;6.20;;
32399;SDS011;45045;45.440;9.178;2022-11-20T13:08:21;63.15;;;39.13;;
32399;SDS011;45045;45.440;9.178;2022-11-20T13:11:37;52.10;;;42.00;;
32399;SDS011;45045;45.440;9.178;2022-11-20T13:16:34;11.55;;;8.00;;
32399;SDS011;45045;45.440;9.178;2022-11-20T13:19:14;10.50;;;6.90;;
32399;SDS011;45045;45.440;9.178;2022-11-20T13:21:42;10.63;;;7.13;;
32399;SDS011;45045;45.440;9.178;2022-11-20T13:26:48;10.23;;;6.47;;
32399;SDS011;45045;45.440;9.178;2022-11-20T13:29:25;10.32;;;6.80;;
32399;SDS011;45045;45.440;9.178;2022-11-20T13:31:51;12.68;;;6.07;;
32399;SDS011;45045;45.440;9.178;2022-11-20T13:34:27;9.30;;;5.88;;
32399;SDS011;45045;45.440;9.178;2022-11-20T13:36:53;9.57;;;5.50;;
32399;SDS011;45045;45.440;9.178;2022-11-20T13:39:27;7.28;;;5.05;;
32399;SDS011;45045;45.440;9.178;2022-11-20T13:42:01;11.20;;;7.50;;
32399;SDS011;45045;45.440;9.178;2022-11-20T13:44:47;12.13;;;8.30;;
32399;SDS011;45045;45.440;9.178;2022-11-20T13:49:47;10.40;;;5.35;;
32399;SDS011;45045;45.440;9.178;2022-11-20T13:52:32;8.73;;;5.30;;
32399;SDS011;45045;45.440;9.178;2022-11-20T13:55:12;9.35;;;4.82;;
32399;SDS011;45045;45.440;9.178;2022-11-20T14:01:09;8.43;;;4.28;;
32399;SDS011;45045;45.440;9.178;2022-11-20T14:03:42;7.45;;;4.30;;
32399;SDS011;45045;45.440;9.178;2022-11-20T14:06:14;6.30;;;3.53;;
32399;SDS011;45045;45.440;9.178;2022-11-20T14:08:52;7.63;;;3.10;;
32399;SDS011;45045;45.440;9.178;2022-11-20T14:11:21;5.65;;;2.90;;
32399;SDS011;45045;45.440;9.178;2022-11-20T14:14:04;7.75;;;4.78;;
32399;SDS011;45045;45.440;9.178;2022-11-20T14:16:44;10.85;;;4.47;;
32399;SDS011;45045;45.440;9.178;2022-11-20T14:19:43;6.55;;;2.10;;
32399;SDS011;45045;45.440;9.178;2022-11-20T14:22:23;4.95;;;2.40;;
32399;SDS011;45045;45.440;9.178;2022-11-20T14:25:18;4.25;;;2.47;;
32399;SDS011;45045;45.440;9.178;2022-11-20T14:27:52;7.45;;;4.15;;
32399;SDS011;45045;45.440;9.178;2022-11-20T14:30:23;12.35;;;8.02;;
32399;SDS011;45045;45.440;9.178;2022-11-20T14:33:09;5.57;;;2.30;;
32399;SDS011;45045;45.440;9.178;2022-11-20T14:35:48;3.83;;;2.03;;
32399;SDS011;45045;45.440;9.178;2022-11-20T14:38:26;5.50;;;2.50;;
32399;SDS011;45045;45.440;9.178;2022-11-20T14:40:53;5.53;;;2.83;;
32399;SDS011;45045;45.440;9.178;2022-11-20T14:43:24;9.98;;;6.32;;
32399;SDS011;45045;45.440;9.178;2022-11-20T14:45:55;6.97;;;3.47;;
32399;SDS011;45045;45.440;9.178;2022-11-20T14:48:39;8.32;;;3.50;;
32399;SDS011;45045;45.440;9.178;2022-11-20T14:51:31;4.95;;;2.88;;
32399;SDS011;45045;45.440;9.178;2022-11-20T14:54:18;5.82;;;3.17;;
32399;SDS011;45045;45.440;9.178;2022-11-20T14:57:03;6.20;;;3.50;;
32399;SDS011;45045;45.440;9.178;2022-11-20T14:59:48;6.70;;;3.22;;
32399;SDS011;45045;45.440;9.178;2022-11-20T15:02:15;5.57;;;3.17;;
32399;SDS011;45045;45.440;9.178;2022-11-20T15:04:49;5.93;;;2.78;;
32399;SDS011;45045;45.440;9.178;2022-11-20T15:07:25;8.48;;;3.80;;
32399;SDS011;45045;45.440;9.178;2022-11-20T15:10:08;7.15;;;3.70;;
32399;SDS011;45045;45.440;9.178;2022-11-20T15:12:40;7.70;;;3.35;;
32399;SDS011;45045;45.440;9.178;2022-11-20T15:15:15;6.97;;;3.20;;
32399;SDS011;45045;45.440;9.178;2022-11-20T15:17:45;6.88;;;3.85;;
32399;SDS011;45045;45.440;9.178;2022-11-20T15:20:15;6.68;;;3.55;;
32399;SDS011;45045;45.440;9.178;2022-11-20T15:22:41;6.90;;;3.60;;
32399;SDS011;45045;45.440;9.178;2022-11-20T15:25:14;7.75;;;4.03;;
32399;SDS011;45045;45.440;9.178;2022-11-20T15:27:41;6.97;;;3.95;;
32399;SDS011;45045;45.440;9.178;2022-11-20T15:30:14;10.38;;;4.40;;
32399;SDS011;45045;45.440;9.178;2022-11-20T15:32:43;6.20;;;3.75;;
32399;SDS011;45045;45.440;9.178;2022-11-20T15:35:09;15.90;;;10.30;;
32399;SDS011;45045;45.440;9.178;2022-11-20T15:37:36;15.48;;;10.00;;
32399;SDS011;45045;45.440;9.178;2022-11-20T15:40:02;16.55;;;9.95;;
32399;SDS011;45045;45.440;9.178;2022-11-20T15:42:28;8.07;;;5.07;;
32399;SDS011;45045;45.440;9.178;2022-11-20T15:44:54;18.92;;;12.77;;
32399;SDS011;45045;45.440;9.178;2022-11-20T15:47:21;11.43;;;7.60;;
32399;SDS011;45045;45.440;9.178;2022-11-20T15:49:52;8.05;;;5.30;;
32399;SDS011;45045;45.440;9.178;2022-11-20T15:52:18;9.77;;;5.00;;
32399;SDS011;45045;45.440;9.178;2022-11-20T15:54:43;7.97;;;4.43;;
32399;SDS011;45045;45.440;9.178;2022-11-20T15:57:09;6.43;;;4.13;;
32399;SDS011;45045;45.440;9.178;2022-11-20T15:59:34;8.18;;;4.85;;
32399;SDS011;45045;45.440;9.178;2022-11-20T16:02:08;9.60;;;5.05;;
32399;SDS011;45045;45.440;9.178;2022-11-20T16:04:35;9.47;;;5.00;;
32399;SDS011;45045;45.440;9.178;2022-11-20T16:07:00;9.13;;;5.07;;
32399;SDS011;45045;45.440;9.178;2022-11-20T16:09:26;8.45;;;4.88;;
32399;SDS011;45045;45.440;9.178;2022-11-20T16:11:52;8.50;;;5.40;;
32399;SDS011;45045;45.440;9.178;2022-11-20T16:14:17;9.15;;;5.75;;
32399;SDS011;45045;45.440;9.178;2022-11-20T16:17:02;11.00;;;6.53;;
32399;SDS011;45045;45.440;9.178;2022-11-20T16:19:28;9.52;;;6.18;;